KLUK/LUK METAR and TAF weather

Enter ICAO airport designator
Station Type Date Time Source
KLUK METAR 2022/06/27 08:53 UTC NOAA

KLUK 270853Z AUTO 00000KT 10SM CLR 18/16 A3012 RMK AO2 SLP195 T01780156 53010 $


Station Type Date Time Source
KLUK Decoded METAR 2022/06/27 08:53 UTC NOAA

CINCINNATI MUN LUNKEN FLD, OH, United States (KLUK) 39-06N 84-25W 155M
Jun 27, 2022 - 04:53 AM EDT / 2022.06.27 0853 UTC
Wind: Calm:0
Visibility: 10 mile(s):0
Sky conditions: clear
Temperature: 64.0 F (17.8 C)
Dew Point: 60.1 F (15.6 C)
Relative Humidity: 86%
Pressure (altimeter): 30.12 in. Hg (1019 hPa)
Pressure tendency: 0.03 inches (1.0 hPa) higher than three hours ago
ob: KLUK 270853Z AUTO 00000KT 10SM CLR 18/16 A3012 RMK AO2 SLP195 T01780156 53010
cycle: 9

Station Type Date Time Source
KLUK TAF 2022/06/27 06:22 UTC NOAA

TAF KLUK 270520Z 2706/2806 32009KT P6SM SCT250
FM271600 35007KT P6SM SCT040
FM280000 01005KT P6SM SCT250

Example: see airport list